KOPN

Thomaston-Upson County Airport

Thomaston, Georgia, USA
METAR KOPN 181435Z AUTO 23007KT 10SM OVC010 26/21 A3014 RMK AO2 LTG DSNT W
Observed Flight Rules
Aug-18 @ 14:35 UTC (17 minutes ago) Marginal Visual Flight Rules
Wind Visibility Clouds
230° at 7 knots 10 miles
  • Overcast at 1,000' AGL
Temperatures Readings
Current 26°C / 79°F
Dewpoint 21°C / 70°F
Humidity 74%
Altimeter 30.14" Hg
Pressure 1021 hPa
Elevation 243
METAR KOPN 181435Z AUTO 23007KT 10SM OVC010 26/21 A3014 RMK AO2 LTG DSNT W
Observed Flight Rules
Aug-18 @ 14:35 UTC
(17 minutes ago)
MVFR
Wind Visibility
230° at 7 knots 10 miles
Clouds
  • Overcast at 1,000' AGL
Temperature Dewpoint
26°C / 79°F 21°C / 70°F
Humidity Altimeter Pressure
74% 30.14" Hg 1021 hPa